SWA1640 KATL-KLBB
Flight info
| Callsign | SWA1640 |
|---|---|
| Flight time | N/A |
| Altitude | 40000 |
| Route | NASSA2 VUZ SQS J52 ADM SPS |
| Aircraft | B736/M-SDE2E3FGHIRWXY/LB1 |
Departure
| Time | 2026-05-06 23:27 |
|---|---|
| Airport | Hartsfield Jackson Atlanta International Airport (KATL) |
Arrival
| Time | N/A |
|---|---|
| Airport | Lubbock Preston Smith International Airport (KLBB) |
| Time | Latitude | Longitude | Altitude | Speed | Heading |
|---|---|---|---|---|---|
| 2026-05-06 23:02 | 33.63840 | -84.44203 | 1014 ft | 0 kts | 270° |
| 2026-05-06 23:13 | 33.63840 | -84.44192 | 1005 ft | 3 kts | 271° |
| 2026-05-06 23:13 | 33.63839 | -84.44168 | 1005 ft | 3 kts | 278° |
| 2026-05-06 23:13 | 33.63835 | -84.44144 | 1005 ft | 3 kts | 290° |
| 2026-05-06 23:14 | 33.63827 | -84.44124 | 1005 ft | 3 kts | 319° |
| 2026-05-06 23:14 | 33.63814 | -84.44115 | 1005 ft | 1 kts | 359° |
| 2026-05-06 23:14 | 33.63809 | -84.44115 | 1005 ft | 0 kts | 0° |
| 2026-05-06 23:16 | 33.63810 | -84.44115 | 1005 ft | 1 kts | 0° |
| 2026-05-06 23:16 | 33.63819 | -84.44115 | 1005 ft | 2 kts | 359° |
| 2026-05-06 23:17 | 33.63846 | -84.44116 | 1005 ft | 6 kts | 359° |
| 2026-05-06 23:17 | 33.63896 | -84.44116 | 1005 ft | 9 kts | 0° |
| 2026-05-06 23:17 | 33.63965 | -84.44116 | 1005 ft | 11 kts | 360° |
| 2026-05-06 23:17 | 33.64050 | -84.44117 | 1005 ft | 12 kts | 359° |
| 2026-05-06 23:18 | 33.64134 | -84.44117 | 1005 ft | 12 kts | 0° |
| 2026-05-06 23:18 | 33.64216 | -84.44116 | 1005 ft | 12 kts | 0° |
| 2026-05-06 23:18 | 33.64290 | -84.44116 | 1005 ft | 9 kts | 359° |
| 2026-05-06 23:18 | 33.64313 | -84.44116 | 1005 ft | 0 kts | 360° |
| 2026-05-06 23:19 | 33.64315 | -84.44116 | 1005 ft | 1 kts | 360° |
| 2026-05-06 23:19 | 33.64354 | -84.44116 | 1005 ft | 10 kts | 359° |
| 2026-05-06 23:19 | 33.64417 | -84.44066 | 1005 ft | 13 kts | 77° |
| 2026-05-06 23:20 | 33.64433 | -84.43939 | 1005 ft | 17 kts | 81° |
| 2026-05-06 23:20 | 33.64452 | -84.43784 | 1005 ft | 20 kts | 82° |
| 2026-05-06 23:20 | 33.64459 | -84.43614 | 1005 ft | 21 kts | 90° |
| 2026-05-06 23:20 | 33.64460 | -84.43442 | 1005 ft | 20 kts | 89° |
| 2026-05-06 23:21 | 33.64459 | -84.43275 | 1006 ft | 20 kts | 89° |
| 2026-05-06 23:21 | 33.64460 | -84.43113 | 1006 ft | 19 kts | 90° |
| 2026-05-06 23:21 | 33.64461 | -84.42957 | 1005 ft | 18 kts | 90° |
| 2026-05-06 23:21 | 33.64460 | -84.42806 | 1005 ft | 18 kts | 87° |
| 2026-05-06 23:22 | 33.64468 | -84.42661 | 1005 ft | 17 kts | 89° |
| 2026-05-06 23:22 | 33.64469 | -84.42520 | 1005 ft | 17 kts | 90° |
| 2026-05-06 23:22 | 33.64469 | -84.42385 | 1005 ft | 16 kts | 90° |
| 2026-05-06 23:22 | 33.64475 | -84.42255 | 1005 ft | 15 kts | 72° |
| 2026-05-06 23:23 | 33.64526 | -84.42146 | 1005 ft | 15 kts | 60° |
| 2026-05-06 23:23 | 33.64543 | -84.42030 | 1005 ft | 14 kts | 90° |
| 2026-05-06 23:23 | 33.64542 | -84.41912 | 1005 ft | 15 kts | 90° |
| 2026-05-06 23:23 | 33.64542 | -84.41784 | 1005 ft | 16 kts | 90° |
| 2026-05-06 23:24 | 33.64542 | -84.41650 | 1006 ft | 17 kts | 90° |
| 2026-05-06 23:24 | 33.64542 | -84.41503 | 1006 ft | 19 kts | 90° |
| 2026-05-06 23:24 | 33.64542 | -84.41345 | 1006 ft | 19 kts | 90° |
| 2026-05-06 23:24 | 33.64542 | -84.41190 | 1006 ft | 18 kts | 90° |
| 2026-05-06 23:25 | 33.64543 | -84.41042 | 1005 ft | 18 kts | 91° |
| 2026-05-06 23:25 | 33.64543 | -84.40946 | 1005 ft | 17 kts | 90° |
| 2026-05-06 23:25 | 33.64557 | -84.40809 | 1005 ft | 16 kts | 69° |
| 2026-05-06 23:25 | 33.64570 | -84.40676 | 1004 ft | 16 kts | 90° |
| 2026-05-06 23:26 | 33.64611 | -84.40572 | 1004 ft | 15 kts | 10° |
| 2026-05-06 23:26 | 33.64679 | -84.40767 | 1004 ft | 52 kts | 269° |
| 2026-05-06 23:26 | 33.64678 | -84.41209 | 1006 ft | 104 kts | 270° |
| 2026-05-06 23:26 | 33.64679 | -84.42347 | 1064 ft | 161 kts | 268° |
| 2026-05-06 23:27 | 33.64706 | -84.43766 | 1683 ft | 173 kts | 267° |
| 2026-05-06 23:27 | 33.64709 | -84.45094 | 2865 ft | 150 kts | 265° |
| 2026-05-06 23:27 | 33.64755 | -84.46371 | 3585 ft | 165 kts | 274° |
| 2026-05-06 23:27 | 33.65014 | -84.47861 | 3878 ft | 198 kts | 278° |
| 2026-05-06 23:28 | 33.65347 | -84.49588 | 4115 ft | 228 kts | 279° |
| 2026-05-06 23:28 | 33.65725 | -84.51551 | 4579 ft | 249 kts | 279° |
| 2026-05-06 23:28 | 33.66117 | -84.53599 | 5478 ft | 254 kts | 279° |
| 2026-05-06 23:28 | 33.66506 | -84.55663 | 6494 ft | 254 kts | 279° |
| 2026-05-06 23:29 | 33.66894 | -84.57737 | 7444 ft | 256 kts | 279° |
| 2026-05-06 23:29 | 33.67269 | -84.59830 | 8491 ft | 256 kts | 278° |
| 2026-05-06 23:29 | 33.67624 | -84.61923 | 9589 ft | 257 kts | 278° |
| 2026-05-06 23:29 | 33.67981 | -84.64047 | 10513 ft | 265 kts | 277° |
| 2026-05-06 23:30 | 33.68362 | -84.66330 | 10819 ft | 294 kts | 278° |
| 2026-05-06 23:30 | 33.68785 | -84.68856 | 11036 ft | 323 kts | 278° |
| 2026-05-06 23:30 | 33.69242 | -84.71568 | 11212 ft | 348 kts | 278° |
| 2026-05-06 23:30 | 33.69742 | -84.74525 | 11568 ft | 363 kts | 278° |
| 2026-05-06 23:31 | 33.70112 | -84.77547 | 12188 ft | 366 kts | 271° |
| 2026-05-06 23:31 | 33.70130 | -84.80606 | 12960 ft | 367 kts | 267° |
| 2026-05-06 23:31 | 33.70082 | -84.83682 | 13711 ft | 370 kts | 267° |
| 2026-05-06 23:31 | 33.70034 | -84.86749 | 14346 ft | 373 kts | 267° |
| 2026-05-06 23:32 | 33.69997 | -84.89868 | 15040 ft | 374 kts | 268° |
| 2026-05-06 23:32 | 33.69972 | -84.93002 | 15716 ft | 376 kts | 268° |
| 2026-05-06 23:32 | 33.69955 | -84.96151 | 16361 ft | 379 kts | 268° |
| 2026-05-06 23:32 | 33.69944 | -84.99322 | 17002 ft | 381 kts | 269° |
| 2026-05-06 23:33 | 33.69934 | -85.02508 | 17618 ft | 383 kts | 269° |
| 2026-05-06 23:33 | 33.69924 | -85.05713 | 18208 ft | 385 kts | 269° |
| 2026-05-06 23:33 | 33.69914 | -85.08933 | 18705 ft | 387 kts | 269° |
| 2026-05-06 23:33 | 33.69902 | -85.12173 | 19203 ft | 388 kts | 269° |
| 2026-05-06 23:34 | 33.69890 | -85.15424 | 19678 ft | 390 kts | 269° |
| 2026-05-06 23:34 | 33.69877 | -85.18684 | 20150 ft | 391 kts | 269° |
| 2026-05-06 23:34 | 33.69862 | -85.21959 | 20614 ft | 393 kts | 269° |
| 2026-05-06 23:34 | 33.69840 | -85.25249 | 21052 ft | 395 kts | 269° |
| 2026-05-06 23:35 | 33.69806 | -85.28549 | 21467 ft | 396 kts | 269° |
| 2026-05-06 23:35 | 33.69768 | -85.31859 | 21843 ft | 397 kts | 269° |
| 2026-05-06 23:35 | 33.69728 | -85.35185 | 22243 ft | 399 kts | 269° |
| 2026-05-06 23:35 | 33.69688 | -85.38525 | 22622 ft | 401 kts | 269° |
| 2026-05-06 23:36 | 33.69647 | -85.41880 | 23015 ft | 402 kts | 269° |
| 2026-05-06 23:36 | 33.69606 | -85.45239 | 23420 ft | 402 kts | 268° |
| 2026-05-06 23:36 | 33.69564 | -85.48597 | 23749 ft | 403 kts | 268° |
| 2026-05-06 23:36 | 33.69522 | -85.51970 | 23991 ft | 405 kts | 268° |
| 2026-05-06 23:37 | 33.69479 | -85.55362 | 24221 ft | 407 kts | 268° |
| 2026-05-06 23:37 | 33.69435 | -85.58769 | 24461 ft | 409 kts | 268° |
| 2026-05-06 23:37 | 33.69389 | -85.62188 | 24707 ft | 410 kts | 268° |
| 2026-05-06 23:37 | 33.69343 | -85.65620 | 24942 ft | 412 kts | 268° |
| 2026-05-06 23:38 | 33.69295 | -85.69064 | 25177 ft | 413 kts | 268° |
| 2026-05-06 23:38 | 33.69246 | -85.72515 | 25415 ft | 414 kts | 269° |
| 2026-05-06 23:38 | 33.69198 | -85.75931 | 26185 ft | 402 kts | 268° |
| 2026-05-06 23:38 | 33.69150 | -85.79227 | 27134 ft | 389 kts | 268° |
| 2026-05-06 23:39 | 33.69102 | -85.82424 | 28163 ft | 377 kts | 268° |
| 2026-05-06 23:39 | 33.69055 | -85.85541 | 28965 ft | 374 kts | 268° |
| 2026-05-06 23:39 | 33.69006 | -85.88701 | 29108 ft | 385 kts | 268° |
| 2026-05-06 23:40 | 33.68901 | -85.95283 | 29293 ft | 402 kts | 268° |
| 2026-05-06 23:40 | 33.68791 | -86.02086 | 29550 ft | 411 kts | 268° |
| 2026-05-06 23:40 | 33.68733 | -86.05528 | 29788 ft | 412 kts | 268° |
| 2026-05-06 23:41 | 33.68673 | -86.08963 | 30110 ft | 411 kts | 268° |
| 2026-05-06 23:41 | 33.68613 | -86.12382 | 30482 ft | 408 kts | 268° |
| 2026-05-06 23:41 | 33.68552 | -86.15780 | 30890 ft | 405 kts | 268° |
| 2026-05-06 23:41 | 33.68491 | -86.19146 | 31324 ft | 401 kts | 268° |
| 2026-05-06 23:42 | 33.68431 | -86.22470 | 31847 ft | 396 kts | 267° |
| 2026-05-06 23:42 | 33.68369 | -86.25763 | 32304 ft | 393 kts | 267° |
| 2026-05-06 23:42 | 33.68308 | -86.29035 | 32720 ft | 392 kts | 267° |
| 2026-05-06 23:42 | 33.68245 | -86.32298 | 33161 ft | 390 kts | 267° |
| 2026-05-06 23:43 | 33.68182 | -86.35537 | 33713 ft | 387 kts | 267° |
| 2026-05-06 23:43 | 33.68119 | -86.38746 | 34227 ft | 382 kts | 267° |
| 2026-05-06 23:43 | 33.68056 | -86.41922 | 34708 ft | 379 kts | 267° |
| 2026-05-06 23:43 | 33.67993 | -86.45073 | 35167 ft | 376 kts | 267° |
| 2026-05-06 23:44 | 33.67928 | -86.48196 | 35649 ft | 373 kts | 267° |
| 2026-05-06 23:44 | 33.67864 | -86.51299 | 36046 ft | 371 kts | 267° |
| 2026-05-06 23:44 | 33.67800 | -86.54384 | 36364 ft | 370 kts | 267° |
| 2026-05-06 23:44 | 33.67735 | -86.57465 | 36705 ft | 368 kts | 266° |
| 2026-05-06 23:45 | 33.67670 | -86.60526 | 37038 ft | 366 kts | 266° |
| 2026-05-06 23:45 | 33.67603 | -86.63583 | 37346 ft | 365 kts | 266° |
| 2026-05-06 23:45 | 33.67537 | -86.66623 | 37723 ft | 363 kts | 266° |
| 2026-05-06 23:45 | 33.67470 | -86.69642 | 38119 ft | 360 kts | 266° |
| 2026-05-06 23:46 | 33.67404 | -86.72599 | 38451 ft | 358 kts | 266° |
| 2026-05-06 23:46 | 33.67336 | -86.75584 | 38706 ft | 358 kts | 266° |
| 2026-05-06 23:46 | 33.67269 | -86.78574 | 38923 ft | 357 kts | 266° |
| 2026-05-06 23:46 | 33.67202 | -86.81548 | 39168 ft | 356 kts | 266° |
| 2026-05-06 23:47 | 33.67130 | -86.84550 | 39387 ft | 355 kts | 266° |
| 2026-05-06 23:47 | 33.67060 | -86.87473 | 39573 ft | 355 kts | 266° |
| 2026-05-06 23:47 | 33.66987 | -86.90466 | 39791 ft | 354 kts | 266° |
| 2026-05-06 23:47 | 33.66873 | -86.93412 | 39954 ft | 354 kts | 265° |
| 2026-05-06 23:48 | 33.66734 | -86.96334 | 39928 ft | 357 kts | 264° |
| 2026-05-06 23:48 | 33.66429 | -87.02306 | 39941 ft | 359 kts | 264° |
| 2026-05-06 23:49 | 33.66128 | -87.08266 | 39939 ft | 357 kts | 264° |
| 2026-05-06 23:49 | 33.65831 | -87.14224 | 39910 ft | 357 kts | 264° |
| 2026-05-06 23:50 | 33.65535 | -87.20171 | 39902 ft | 357 kts | 264° |
| 2026-05-06 23:50 | 33.65085 | -87.29128 | 39895 ft | 360 kts | 265° |
| 2026-05-06 23:51 | 33.64779 | -87.35155 | 39896 ft | 364 kts | 264° |
| 2026-05-06 23:51 | 33.64467 | -87.41237 | 39907 ft | 367 kts | 264° |
| 2026-05-06 23:52 | 33.64151 | -87.47366 | 39897 ft | 369 kts | 264° |
| 2026-05-06 23:52 | 33.63830 | -87.53524 | 39904 ft | 370 kts | 264° |
| 2026-05-06 23:53 | 33.63505 | -87.59687 | 39907 ft | 370 kts | 264° |
| 2026-05-06 23:53 | 33.63177 | -87.65862 | 39904 ft | 371 kts | 264° |
| 2026-05-06 23:54 | 33.62848 | -87.71986 | 39906 ft | 370 kts | 264° |
| 2026-05-06 23:54 | 33.62512 | -87.78189 | 39904 ft | 370 kts | 264° |
| 2026-05-06 23:55 | 33.62176 | -87.84342 | 39898 ft | 369 kts | 263° |
| 2026-05-06 23:55 | 33.61837 | -87.90482 | 39902 ft | 369 kts | 263° |
| 2026-05-06 23:56 | 33.61495 | -87.96617 | 39905 ft | 368 kts | 263° |
| 2026-05-06 23:56 | 33.61153 | -88.02701 | 39905 ft | 368 kts | 263° |
| 2026-05-06 23:57 | 33.60806 | -88.08823 | 39907 ft | 368 kts | 263° |
| 2026-05-06 23:57 | 33.60460 | -88.14890 | 39918 ft | 360 kts | 263° |
| 2026-05-06 23:58 | 33.60118 | -88.20838 | 39922 ft | 357 kts | 263° |
| 2026-05-06 23:58 | 33.59773 | -88.26768 | 39927 ft | 356 kts | 263° |
| 2026-05-06 23:59 | 33.59425 | -88.32691 | 39934 ft | 356 kts | 263° |
| 2026-05-06 23:59 | 33.59074 | -88.38618 | 39936 ft | 357 kts | 263° |
| 2026-05-07 00:00 | 33.58721 | -88.44558 | 39934 ft | 357 kts | 263° |
| 2026-05-07 00:00 | 33.58424 | -88.49493 | 39941 ft | 357 kts | 263° |
| 2026-05-07 00:01 | 33.58004 | -88.56433 | 39933 ft | 357 kts | 263° |
| 2026-05-07 00:01 | 33.57642 | -88.62363 | 39979 ft | 357 kts | 263° |
| 2026-05-07 00:02 | 33.57277 | -88.68293 | 39977 ft | 357 kts | 263° |
| 2026-05-07 00:02 | 33.56909 | -88.74226 | 39944 ft | 357 kts | 263° |
| 2026-05-07 00:03 | 33.56538 | -88.80157 | 39950 ft | 357 kts | 263° |
| 2026-05-07 00:03 | 33.56165 | -88.86086 | 39950 ft | 357 kts | 263° |
| 2026-05-07 00:04 | 33.55789 | -88.92014 | 39952 ft | 357 kts | 263° |
| 2026-05-07 00:04 | 33.55409 | -88.97950 | 39948 ft | 357 kts | 263° |
| 2026-05-07 00:05 | 33.55027 | -89.03890 | 39946 ft | 357 kts | 263° |
| 2026-05-07 00:05 | 33.54641 | -89.09827 | 39935 ft | 357 kts | 263° |
| 2026-05-07 00:06 | 33.54253 | -89.15771 | 39938 ft | 358 kts | 263° |
| 2026-05-07 00:06 | 33.53861 | -89.21714 | 39938 ft | 358 kts | 263° |
| 2026-05-07 00:07 | 33.53467 | -89.27665 | 39948 ft | 358 kts | 262° |
| 2026-05-07 00:07 | 33.53069 | -89.33610 | 39940 ft | 358 kts | 262° |
| 2026-05-07 00:08 | 33.52670 | -89.39542 | 39947 ft | 357 kts | 262° |
| 2026-05-07 00:08 | 33.52268 | -89.45472 | 39946 ft | 357 kts | 262° |
| 2026-05-07 00:09 | 33.51864 | -89.51393 | 39948 ft | 357 kts | 262° |
| 2026-05-07 00:09 | 33.51457 | -89.57316 | 39944 ft | 356 kts | 262° |
| 2026-05-07 00:10 | 33.51047 | -89.63232 | 39944 ft | 356 kts | 262° |
| 2026-05-07 00:10 | 33.50704 | -89.68147 | 39946 ft | 356 kts | 262° |
| 2026-05-07 00:11 | 33.50289 | -89.74064 | 39950 ft | 356 kts | 262° |
| 2026-05-07 00:11 | 33.49804 | -89.80938 | 39950 ft | 356 kts | 262° |
| 2026-05-07 00:12 | 33.49451 | -89.85895 | 39953 ft | 356 kts | 262° |
| 2026-05-07 00:12 | 33.49028 | -89.91808 | 39951 ft | 356 kts | 262° |
| 2026-05-07 00:13 | 33.48602 | -89.97719 | 39952 ft | 356 kts | 262° |
| 2026-05-07 00:13 | 33.48176 | -90.03596 | 39954 ft | 357 kts | 262° |
| 2026-05-07 00:14 | 33.47744 | -90.09515 | 39956 ft | 357 kts | 262° |
| 2026-05-07 00:14 | 33.47309 | -90.15440 | 39953 ft | 357 kts | 262° |
| 2026-05-07 00:15 | 33.46872 | -90.21358 | 39953 ft | 357 kts | 262° |
| 2026-05-07 00:15 | 33.46445 | -90.27274 | 39953 ft | 357 kts | 263° |
| 2026-05-07 00:16 | 33.46519 | -90.33254 | 39954 ft | 360 kts | 268° |
| 2026-05-07 00:16 | 33.46703 | -90.39238 | 39974 ft | 360 kts | 268° |
| 2026-05-07 00:17 | 33.46878 | -90.45224 | 39959 ft | 360 kts | 268° |
| 2026-05-07 00:17 | 33.47044 | -90.51210 | 39961 ft | 359 kts | 267° |
| 2026-05-07 00:18 | 33.47204 | -90.57194 | 39961 ft | 359 kts | 267° |
| 2026-05-07 00:18 | 33.47359 | -90.63174 | 39964 ft | 359 kts | 267° |
| 2026-05-07 00:19 | 33.47511 | -90.69152 | 39964 ft | 359 kts | 267° |
| 2026-05-07 00:19 | 33.47660 | -90.75126 | 39972 ft | 359 kts | 267° |
| 2026-05-07 00:20 | 33.47806 | -90.81105 | 39984 ft | 359 kts | 267° |
| 2026-05-07 00:20 | 33.47949 | -90.87068 | 39974 ft | 358 kts | 267° |
| 2026-05-07 00:21 | 33.48089 | -90.93022 | 39980 ft | 357 kts | 267° |
| 2026-05-07 00:21 | 33.48226 | -90.98962 | 39981 ft | 357 kts | 267° |
| 2026-05-07 00:22 | 33.48360 | -91.04902 | 39981 ft | 357 kts | 267° |
| 2026-05-07 00:22 | 33.48491 | -91.10836 | 39982 ft | 357 kts | 267° |
| 2026-05-07 00:23 | 33.48619 | -91.16777 | 39996 ft | 356 kts | 267° |
| 2026-05-07 00:23 | 33.48744 | -91.22707 | 39984 ft | 356 kts | 267° |
| 2026-05-07 00:24 | 33.48866 | -91.28589 | 39986 ft | 355 kts | 267° |